Beeville, Texas
Current Conditions -  °F | °C
As of 6:15 PM on Monday 22 Dec 2014 (Local Time) from KBEA Reporting Station
Clear Clear  
Wind Chill: 63°   Ceiling: Unl
Heat Index: 63°   Visibility: 10mi
Dew Point: 59°   Wind: 5mph
Humidity: 87%   Direction: 140°SE
Pressure: 29.63"   Gusts: NA
Location:  28.4°N, 97.75°W
Report Text: KBEA 230015Z AUTO 14004KT 10SM CLR 17/15 A2963 RMK AO2 T01730151
Loading
Personal Weather Stations






























Interactive Weather Map New forecast layout! Learn more

10-Day Weather Forecast

Advertisements
Track Severe Weather on mobile